Time;durP1;ratioP1;P1;durP2;ratioP2;P2;SDS_P1;SDS_P2;PMS_P1;PMS_P2;Temp;Humidity;BMP_temperature;BMP_pressure;BME280_temperature;BME280_humidity;BME280_pressure;Samples;Min_cycle;Max_cycle;Signal;HPM_P1;HPM_P2
2023/02/21 02:15:46;;;;;;;4.32;3.20;;;6.20;99.90;;;;;;5053513;28;20072;-82
2023/02/21 02:18:33;;;;;;;4.32;3.92;;;6.10;99.90;;;;;;5052037;28;20025;-81
2023/02/21 02:21:17;;;;;;;5.05;3.90;;;6.10;99.90;;;;;;5053546;28;20063;-80
2023/02/21 02:24:24;;;;;;;8.02;4.88;;;6.10;99.90;;;;;;5053478;28;20021;-81
2023/02/21 02:27:20;;;;;;;5.32;3.70;;;6.10;99.90;;;;;;5053352;28;20029;-81
2023/02/21 02:30:31;;;;;;;6.63;3.92;;;6.10;99.90;;;;;;5052016;28;20429;-80
2023/02/21 02:33:25;;;;;;;7.38;4.43;;;6.10;99.90;;;;;;5035204;28;20132;-80
2023/02/21 02:36:11;;;;;;;5.95;4.10;;;6.10;99.90;;;;;;5052363;28;20454;-80
2023/02/21 02:39:10;;;;;;;9.05;5.50;;;6.10;99.90;;;;;;5053270;28;20108;-80
2023/02/21 02:41:39;;;;;;;12.77;5.88;;;6.10;99.90;;;;;;5034812;28;20064;-81
2023/02/21 02:44:25;;;;;;;12.82;7.75;;;6.10;99.90;;;;;;5051996;28;20044;-81
2023/02/21 02:46:52;;;;;;;5.07;3.92;;;6.10;99.90;;;;;;5050686;28;20155;-81
2023/02/21 02:49:28;;;;;;;7.50;4.78;;;6.10;99.90;;;;;;5052562;28;20167;-80
2023/02/21 02:51:54;;;;;;;4.72;3.63;;;6.10;99.90;;;;;;5052838;28;20044;-79
2023/02/21 02:54:20;;;;;;;4.68;3.90;;;6.10;99.90;;;;;;5051922;28;20029;-80
2023/02/21 02:56:46;;;;;;;6.45;4.30;;;6.10;99.90;;;;;;5053157;28;20390;-80
2023/02/21 02:59:25;;;;;;;5.25;3.88;;;6.10;99.90;;;;;;5052025;28;20060;-79
2023/02/21 03:02:00;;;;;;;4.18;3.50;;;6.10;99.90;;;;;;5054823;28;20017;-82
2023/02/21 03:05:00;;;;;;;6.57;3.95;;;6.10;99.90;;;;;;5056993;28;20107;-81
2023/02/21 03:07:38;;;;;;;4.07;3.50;;;6.10;99.90;;;;;;5055752;28;20033;-82
2023/02/21 03:10:34;;;;;;;4.85;3.88;;;6.00;99.90;;;;;;5056754;28;20025;-82
2023/02/21 03:13:22;;;;;;;4.38;3.95;;;6.00;99.90;;;;;;5055321;28;20029;-82
2023/02/21 03:16:03;;;;;;;6.70;4.75;;;6.00;99.90;;;;;;5056622;28;20172;-81
2023/02/21 03:18:41;;;;;;;5.55;3.78;;;6.00;99.90;;;;;;5056665;28;20064;-82
2023/02/21 03:21:14;;;;;;;5.55;3.35;;;6.00;99.90;;;;;;5056848;28;20056;-81
2023/02/21 03:23:43;;;;;;;4.38;3.35;;;6.00;99.90;;;;;;5056407;28;20031;-81
2023/02/21 03:26:12;;;;;;;6.18;4.72;;;6.10;99.90;;;;;;5056598;28;20112;-81
2023/02/21 03:28:38;;;;;;;5.20;3.67;;;6.10;99.90;;;;;;5056232;28;20104;-81
2023/02/21 03:31:07;;;;;;;3.40;3.10;;;6.10;99.90;;;;;;5056266;28;20039;-81
2023/02/21 03:33:33;;;;;;;5.00;3.05;;;6.10;99.90;;;;;;5056436;28;20028;-81
2023/02/21 03:36:08;;;;;;;4.72;4.22;;;6.10;99.90;;;;;;5056481;28;20025;-82
2023/02/21 03:38:34;;;;;;;4.72;4.32;;;6.10;99.90;;;;;;5056353;28;20571;-81
2023/02/21 03:41:00;;;;;;;4.18;3.53;;;6.10;99.90;;;;;;5056223;28;20021;-81
2023/02/21 03:43:26;;;;;;;5.40;3.70;;;6.10;99.90;;;;;;5056144;28;20474;-82
2023/02/21 03:45:51;;;;;;;4.10;3.70;;;6.10;99.90;;;;;;5055982;28;20102;-81
2023/02/21 03:48:17;;;;;;;6.57;4.05;;;6.10;99.90;;;;;;5056085;28;20104;-80
2023/02/21 03:50:43;;;;;;;5.18;4.55;;;6.10;99.90;;;;;;5056038;28;20486;-80
2023/02/21 03:53:09;;;;;;;4.00;3.65;;;6.10;99.90;;;;;;5056139;28;20021;-81
2023/02/21 03:55:36;;;;;;;4.90;4.47;;;6.10;99.90;;;;;;5056036;28;20078;-81
2023/02/21 03:58:01;;;;;;;5.20;4.70;;;6.10;99.90;;;;;;5055965;28;20038;-81
2023/02/21 04:00:27;;;;;;;3.97;3.67;;;6.10;99.90;;;;;;5055780;28;20017;-81
2023/02/21 04:02:53;;;;;;;9.77;7.10;;;6.10;99.90;;;;;;5054521;28;20029;-82
2023/02/21 04:05:19;;;;;;;5.60;4.00;;;6.10;99.90;;;;;;5055928;28;20021;-82
2023/02/21 04:07:45;;;;;;;8.05;3.95;;;6.10;99.90;;;;;;5054643;28;20025;-82
2023/02/21 04:10:11;;;;;;;9.32;5.35;;;6.10;99.90;;;;;;5055534;28;20378;-83
2023/02/21 04:12:36;;;;;;;5.32;3.95;;;6.10;99.90;;;;;;5055435;28;20120;-83
2023/02/21 04:15:02;;;;;;;10.00;6.47;;;6.10;99.90;;;;;;5055670;28;20105;-82
2023/02/21 04:17:28;;;;;;;4.85;4.32;;;6.10;99.90;;;;;;5055264;28;20040;-82
2023/02/21 04:19:53;;;;;;;6.28;3.90;;;6.10;99.90;;;;;;5054940;28;20086;-81
2023/02/21 04:22:19;;;;;;;4.60;3.63;;;6.10;99.90;;;;;;5055450;28;20519;-81
2023/02/21 04:24:46;;;;;;;4.68;3.55;;;6.10;99.90;;;;;;5054315;28;20378;-81
2023/02/21 04:27:13;;;;;;;5.68;4.07;;;6.10;99.90;;;;;;5055087;28;20017;-82
2023/02/21 04:29:38;;;;;;;4.68;3.67;;;6.10;99.90;;;;;;5053690;28;20059;-82
2023/02/21 04:32:04;;;;;;;4.65;4.13;;;6.10;99.90;;;;;;5055239;28;20087;-82
2023/02/21 04:34:30;;;;;;;3.50;3.20;;;6.10;99.90;;;;;;5054234;28;20025;-80
2023/02/21 04:36:55;;;;;;;3.03;2.80;;;6.10;99.90;;;;;;5055622;28;20036;-80
2023/02/21 04:39:21;;;;;;;4.10;3.55;;;6.00;99.90;;;;;;5055263;28;20025;-80
2023/02/21 04:41:47;;;;;;;3.03;2.83;;;6.10;99.90;;;;;;5055321;28;20021;-80
2023/02/21 04:44:12;;;;;;;3.63;3.30;;;6.00;99.90;;;;;;5055249;28;20249;-80
2023/02/21 04:46:38;;;;;;;5.68;3.83;;;6.00;99.90;;;;;;5054929;28;20356;-81
2023/02/21 04:49:04;;;;;;;5.85;3.65;;;6.10;99.90;;;;;;5054702;28;20025;-81
2023/02/21 04:51:29;;;;;;;3.42;3.00;;;6.10;99.90;;;;;;5053697;28;20037;-81
2023/02/21 04:53:56;;;;;;;4.13;3.55;;;6.00;99.90;;;;;;5054518;28;20486;-81
2023/02/21 04:56:23;;;;;;;4.22;3.53;;;6.00;99.90;;;;;;5054671;28;20116;-80
2023/02/21 04:58:49;;;;;;;4.22;3.80;;;6.00;99.90;;;;;;5054612;28;20021;-80
2023/02/21 05:01:17;;;;;;;5.35;3.70;;;6.00;99.90;;;;;;5054769;28;20017;-79
2023/02/21 05:03:43;;;;;;;6.00;4.82;;;6.00;99.90;;;;;;5066708;28;20070;-81
2023/02/21 05:06:08;;;;;;;5.75;5.20;;;6.00;99.90;;;;;;5074721;28;20085;-81
2023/02/21 05:08:37;;;;;;;6.75;5.05;;;6.00;99.90;;;;;;5074432;28;20436;-82
2023/02/21 05:11:03;;;;;;;6.72;5.75;;;6.00;99.90;;;;;;5074132;28;20032;-81
2023/02/21 05:13:28;;;;;;;6.18;5.57;;;6.00;99.90;;;;;;5054320;28;20044;-82
2023/02/21 05:15:54;;;;;;;5.55;5.05;;;6.00;99.90;;;;;;5054468;28;20382;-82
2023/02/21 05:18:22;;;;;;;6.93;5.72;;;6.10;99.90;;;;;;5054188;28;20025;-82
2023/02/21 05:20:51;;;;;;;6.28;5.53;;;6.00;99.90;;;;;;5052769;28;20025;-82
2023/02/21 05:23:32;;;;;;;6.72;5.55;;;6.00;99.90;;;;;;5053544;28;20025;-81
2023/02/21 05:26:00;;;;;;;12.20;6.40;;;6.00;99.90;;;;;;5053318;28;20032;-82
2023/02/21 05:28:25;;;;;;;7.35;5.57;;;6.00;99.90;;;;;;5054521;28;20086;-81
2023/02/21 05:30:51;;;;;;;6.63;5.93;;;6.00;99.90;;;;;;5054045;28;20482;-81
2023/02/21 05:33:17;;;;;;;7.47;6.43;;;6.00;99.90;;;;;;5054257;28;20082;-82
2023/02/21 05:35:45;;;;;;;7.00;6.18;;;6.00;99.90;;;;;;5045305;28;20382;-83
2023/02/21 05:38:11;;;;;;;7.82;5.72;;;6.00;99.90;;;;;;5049161;28;20021;-83
2023/02/21 05:40:36;;;;;;;6.18;5.50;;;6.00;99.90;;;;;;5033896;28;20028;-84
2023/02/21 05:43:02;;;;;;;12.50;6.82;;;6.00;99.90;;;;;;5033512;28;20022;-82
2023/02/21 05:45:28;;;;;;;7.60;6.32;;;6.00;99.90;;;;;;5032246;28;20145;-82
2023/02/21 05:47:57;;;;;;;7.47;6.68;;;6.00;99.90;;;;;;5033723;28;20017;-82
2023/02/21 05:50:23;;;;;;;6.20;5.63;;;6.00;99.90;;;;;;5033774;28;20051;-81
2023/02/21 05:52:48;;;;;;;7.25;6.20;;;6.00;99.90;;;;;;5032551;28;20030;-82
2023/02/21 05:55:14;;;;;;;8.10;5.97;;;6.00;99.90;;;;;;5033557;28;20032;-83
2023/02/21 05:57:40;;;;;;;7.25;6.20;;;6.00;99.90;;;;;;5033346;28;20075;-80
2023/02/21 06:00:06;;;;;;;7.85;6.43;;;6.00;99.90;;;;;;5033733;28;20029;-80
2023/02/21 06:02:32;;;;;;;7.10;6.38;;;6.00;99.90;;;;;;5033930;28;20029;-80
2023/02/21 06:04:57;;;;;;;8.98;6.05;;;6.10;99.90;;;;;;5033593;28;20459;-80
2023/02/21 06:07:23;;;;;;;8.20;5.65;;;6.00;99.90;;;;;;5034084;28;20049;-81
2023/02/21 06:09:49;;;;;;;10.00;5.15;;;6.10;99.90;;;;;;5066283;28;20485;-80
2023/02/21 06:12:14;;;;;;;7.07;5.75;;;6.10;99.90;;;;;;5071694;28;20103;-80
2023/02/21 06:14:40;;;;;;;7.07;5.90;;;6.10;99.90;;;;;;5072077;28;20021;-80
2023/02/21 06:17:06;;;;;;;6.78;5.32;;;6.10;99.90;;;;;;5073769;28;20500;-81
2023/02/21 06:19:31;;;;;;;6.60;5.75;;;6.10;99.90;;;;;;5059240;28;20598;-81
2023/02/21 06:21:57;;;;;;;8.27;5.70;;;6.10;99.90;;;;;;5053466;28;20123;-80
2023/02/21 06:24:23;;;;;;;7.75;6.05;;;6.10;99.90;;;;;;5054742;28;20037;-80
2023/02/21 06:26:48;;;;;;;6.90;5.18;;;6.20;99.90;;;;;;5068062;28;20501;-81
2023/02/21 06:29:14;;;;;;;5.57;5.03;;;6.20;99.90;;;;;;5065329;28;20036;-81
2023/02/21 06:31:40;;;;;;;8.45;6.22;;;6.20;99.90;;;;;;5061927;28;20043;-80
2023/02/21 06:34:06;;;;;;;7.38;5.60;;;6.20;99.90;;;;;;5062425;28;20029;-80
2023/02/21 06:36:31;;;;;;;7.43;5.00;;;6.20;99.90;;;;;;5071543;28;20032;-80
2023/02/21 06:38:57;;;;;;;5.43;4.68;;;6.30;99.90;;;;;;5072144;28;20376;-81
2023/02/21 06:41:26;;;;;;;7.47;5.32;;;6.30;99.90;;;;;;5072915;28;20044;-80
2023/02/21 06:43:54;;;;;;;8.73;6.07;;;6.30;99.90;;;;;;5071942;28;20044;-80
2023/02/21 06:46:22;;;;;;;5.90;5.03;;;6.30;99.90;;;;;;5073029;28;20108;-80
2023/02/21 06:48:48;;;;;;;6.20;4.90;;;6.30;99.90;;;;;;5065084;28;20053;-80
2023/02/21 06:51:14;;;;;;;5.15;4.60;;;6.30;99.90;;;;;;5051846;28;20033;-81
2023/02/21 06:53:41;;;;;;;6.55;4.85;;;6.30;99.90;;;;;;5051935;28;20028;-80
2023/02/21 06:56:07;;;;;;;5.40;4.55;;;6.30;99.90;;;;;;5052973;28;20025;-81
2023/02/21 06:58:33;;;;;;;4.65;3.63;;;6.30;99.90;;;;;;5051574;28;20078;-80
2023/02/21 07:00:59;;;;;;;4.72;4.20;;;6.30;99.90;;;;;;5062873;28;20104;-81
2023/02/21 07:03:25;;;;;;;5.93;4.40;;;6.30;99.90;;;;;;5051944;28;20040;-81
2023/02/21 07:05:51;;;;;;;8.52;4.10;;;6.40;99.90;;;;;;5052045;28;20482;-81
2023/02/21 07:08:17;;;;;;;4.65;4.25;;;6.40;99.90;;;;;;5071618;28;20085;-81
2023/02/21 07:10:42;;;;;;;3.83;3.42;;;6.40;99.90;;;;;;5069991;28;20027;-81
2023/02/21 07:13:08;;;;;;;4.68;4.05;;;6.50;99.90;;;;;;5070039;28;20023;-81
2023/02/21 07:15:34;;;;;;;6.35;4.57;;;6.50;99.90;;;;;;5071525;28;20027;-80
2023/02/21 07:17:59;;;;;;;4.00;3.20;;;6.50;99.90;;;;;;5071058;28;20393;-81
2023/02/21 07:20:26;;;;;;;6.07;4.20;;;6.50;99.90;;;;;;5070262;28;20029;-79
2023/02/21 07:22:52;;;;;;;7.72;4.43;;;6.60;99.90;;;;;;5073285;28;20102;-78
2023/02/21 07:25:20;;;;;;;5.20;3.97;;;6.70;99.90;;;;;;5071487;28;20020;-80
2023/02/21 07:27:47;;;;;;;5.53;3.50;;;6.70;99.90;;;;;;5071996;28;20029;-79
2023/02/21 07:30:13;;;;;;;10.10;4.10;;;6.70;99.90;;;;;;5072651;28;20036;-81
2023/02/21 07:32:39;;;;;;;4.78;3.90;;;6.70;99.90;;;;;;5072415;28;20046;-80
2023/02/21 07:35:05;;;;;;;6.72;3.58;;;6.70;99.90;;;;;;5070535;28;20444;-82
2023/02/21 07:37:31;;;;;;;4.30;3.90;;;6.80;99.90;;;;;;5068236;28;20017;-81
2023/02/21 07:39:57;;;;;;;5.20;4.18;;;6.80;99.90;;;;;;5049750;28;20378;-81
2023/02/21 07:42:22;;;;;;;15.48;9.00;;;6.90;99.90;;;;;;5049594;28;20021;-82
2023/02/21 07:44:48;;;;;;;42.10;17.48;;;6.80;99.90;;;;;;5048929;28;20112;-82
2023/02/21 07:47:14;;;;;;;60.53;21.67;;;6.90;99.90;;;;;;5047327;28;20067;-82
2023/02/21 07:49:42;;;;;;;37.50;14.80;;;6.80;99.90;;;;;;5051453;28;20056;-82
2023/02/21 07:52:08;;;;;;;54.20;20.08;;;6.80;99.90;;;;;;5060243;28;20114;-82
2023/02/21 07:54:35;;;;;;;18.15;8.15;;;6.90;99.90;;;;;;5063358;28;20044;-81
2023/02/21 07:57:00;;;;;;;26.70;12.15;;;6.90;99.90;;;;;;5061326;28;20056;-81
2023/02/21 07:59:26;;;;;;;38.75;18.10;;;6.90;99.90;;;;;;5053437;28;20394;-82
2023/02/21 08:01:52;;;;;;;84.30;29.33;;;7.00;99.90;;;;;;5051258;28;20525;-81
2023/02/21 08:04:20;;;;;;;65.40;26.60;;;7.10;99.90;;;;;;5053534;28;20418;-82
2023/02/21 08:06:46;;;;;;;11.60;5.88;;;7.10;99.90;;;;;;5046939;28;20387;-82
2023/02/21 08:09:12;;;;;;;10.88;5.30;;;7.20;99.90;;;;;;5062515;28;20029;-82
2023/02/21 08:11:39;;;;;;;6.32;4.38;;;7.10;99.90;;;;;;5063488;28;20041;-83
2023/02/21 08:14:05;;;;;;;16.50;7.35;;;7.10;99.90;;;;;;5061526;28;20489;-84
2023/02/21 08:16:31;;;;;;;16.98;9.05;;;7.10;99.90;;;;;;5060467;28;20160;-83
2023/02/21 08:18:56;;;;;;;12.90;7.22;;;7.10;99.90;;;;;;5060235;28;20104;-81
2023/02/21 08:21:22;;;;;;;22.40;11.23;;;7.10;99.90;;;;;;5047791;28;20025;-82
2023/02/21 08:23:51;;;;;;;46.13;19.30;;;7.10;99.90;;;;;;5049079;28;20045;-81
2023/02/21 08:26:17;;;;;;;39.53;18.13;;;7.00;99.90;;;;;;5048483;28;20025;-80
2023/02/21 08:28:43;;;;;;;147.15;58.35;;;7.10;99.90;;;;;;5047520;28;20059;-80
2023/02/21 08:31:08;;;;;;;148.95;57.05;;;7.10;99.90;;;;;;5048619;28;20055;-80
2023/02/21 08:33:34;;;;;;;170.50;65.93;;;7.10;99.90;;;;;;5048647;28;20037;-80
2023/02/21 08:35:59;;;;;;;189.93;72.10;;;7.10;99.90;;;;;;5054216;28;20437;-82
2023/02/21 08:38:25;;;;;;;67.63;27.70;;;7.10;99.90;;;;;;5061862;28;20597;-82
2023/02/21 08:40:52;;;;;;;271.35;99.07;;;7.00;99.90;;;;;;5058475;28;20494;-82
2023/02/21 08:43:17;;;;;;;82.07;31.45;;;7.00;99.90;;;;;;5062048;28;20032;-82
2023/02/21 08:45:43;;;;;;;207.02;75.65;;;7.00;99.90;;;;;;5062893;28;20120;-81
2023/02/21 08:48:09;;;;;;;17.42;8.63;;;7.00;99.90;;;;;;5059127;28;20086;-80
2023/02/21 08:50:34;;;;;;;32.92;14.13;;;7.00;99.90;;;;;;5062749;28;20397;-80
2023/02/21 08:53:00;;;;;;;8.98;5.32;;;7.10;99.90;;;;;;5062832;28;20112;-80
2023/02/21 08:55:26;;;;;;;98.00;31.35;;;7.10;99.90;;;;;;5060882;28;20079;-81
2023/02/21 08:57:53;;;;;;;29.13;12.50;;;7.20;99.90;;;;;;5062203;28;20103;-79
2023/02/21 09:00:22;;;;;;;24.23;9.15;;;7.30;99.90;;;;;;5058948;28;20029;-83
2023/02/21 09:02:49;;;;;;;36.20;14.27;;;7.40;99.90;;;;;;5060445;28;20437;-81
2023/02/21 09:05:26;;;;;;;47.90;15.40;;;7.60;99.90;;;;;;5061906;28;20635;-81
2023/02/21 09:08:00;;;;;;;34.50;12.77;;;7.70;99.90;;;;;;5060858;28;20056;-79
2023/02/21 09:10:30;;;;;;;6.88;4.38;;;7.80;99.90;;;;;;5061757;28;20550;-80
2023/02/21 09:12:56;;;;;;;62.55;23.02;;;7.80;99.90;;;;;;5059246;28;20512;-80
2023/02/21 09:15:21;;;;;;;18.02;8.23;;;8.00;99.90;;;;;;5060884;28;20024;-80
2023/02/21 09:17:49;;;;;;;28.80;13.15;;;8.10;99.90;;;;;;5059532;28;20044;-81
2023/02/21 09:20:19;;;;;;;30.02;12.80;;;8.30;99.90;;;;;;5061574;28;20024;-82
2023/02/21 09:22:47;;;;;;;33.63;13.00;;;8.30;99.90;;;;;;5060501;28;20029;-83
2023/02/21 09:25:16;;;;;;;24.02;10.80;;;8.30;99.90;;;;;;5060375;28;20032;-81
2023/02/21 09:27:41;;;;;;;21.73;9.27;;;8.40;99.90;;;;;;5059380;28;20047;-81
2023/02/21 09:30:23;;;;;;;45.63;16.85;;;8.50;99.90;;;;;;5061745;28;20454;-80
2023/02/21 09:32:49;;;;;;;55.50;20.52;;;8.50;99.90;;;;;;5058648;28;20045;-81
2023/02/21 09:35:15;;;;;;;21.08;10.05;;;8.50;99.90;;;;;;5065195;28;20466;-81
2023/02/21 09:37:42;;;;;;;14.80;7.28;;;8.60;99.90;;;;;;5056466;28;20036;-81
2023/02/21 09:40:22;;;;;;;92.93;33.25;;;8.60;99.90;;;;;;5059541;28;20021;-80
2023/02/21 09:42:50;;;;;;;26.27;10.70;;;8.70;99.90;;;;;;5068043;28;20390;-80
2023/02/21 09:45:18;;;;;;;8.23;4.80;;;8.90;99.90;;;;;;5065416;28;20052;-81
2023/02/21 09:47:53;;;;;;;34.08;15.05;;;8.90;99.90;;;;;;5054817;28;20119;-81
2023/02/21 09:50:26;;;;;;;64.90;27.70;;;8.90;99.90;;;;;;5055299;28;20121;-80
2023/02/21 09:52:55;;;;;;;71.78;28.42;;;8.90;99.90;;;;;;5054085;28;20390;-81
2023/02/21 09:55:29;;;;;;;53.22;23.05;;;8.90;99.90;;;;;;5053032;28;20024;-80
2023/02/21 09:57:56;;;;;;;48.60;21.75;;;8.90;99.90;;;;;;5053268;28;20025;-81
2023/02/21 10:00:26;;;;;;;25.27;9.40;;;9.00;99.90;;;;;;5054521;28;20095;-80
2023/02/21 10:02:58;;;;;;;133.30;49.92;;;9.20;99.90;;;;;;5054929;28;20029;-80
2023/02/21 10:05:42;;;;;;;91.65;34.83;;;9.30;99.90;;;;;;5057302;28;20033;-81
2023/02/21 10:08:18;;;;;;;11.50;6.47;;;9.40;99.90;;;;;;5051322;28;20029;-81
2023/02/21 10:10:57;;;;;;;29.23;12.32;;;9.40;99.90;;;;;;5056388;28;20037;-80
2023/02/21 10:13:30;;;;;;;32.60;14.55;;;9.60;99.90;;;;;;5057461;28;20041;-83
2023/02/21 10:16:18;;;;;;;56.95;20.98;;;9.50;99.90;;;;;;5056659;28;20032;-83
2023/02/21 10:19:06;;;;;;;31.33;14.57;;;9.70;99.90;;;;;;5052004;28;20041;-83
2023/02/21 10:21:35;;;;;;;29.05;13.23;;;9.80;99.90;;;;;;5051437;28;20063;-83
2023/02/21 10:24:08;;;;;;;27.70;12.35;;;9.80;99.90;;;;;;5051465;28;20036;-83
2023/02/21 10:26:41;;;;;;;36.58;13.77;;;9.90;99.90;;;;;;5056497;28;20104;-82
2023/02/21 10:29:44;;;;;;;18.25;8.48;;;10.00;99.90;;;;;;5050213;28;20391;-81
2023/02/21 10:32:09;;;;;;;26.17;11.27;;;9.90;99.90;;;;;;5046101;28;20040;-81
2023/02/21 10:34:35;;;;;;;42.50;18.52;;;9.80;99.90;;;;;;5050088;28;20505;-81
2023/02/21 10:37:33;;;;;;;13.25;7.38;;;9.70;99.90;;;;;;5050642;28;20025;-79
2023/02/21 10:40:21;;;;;;;25.85;13.80;;;9.50;99.90;;;;;;5039770;28;20090;-81
2023/02/21 10:42:55;;;;;;;14.70;7.13;;;9.50;99.90;;;;;;5050486;28;20066;-81
2023/02/21 10:45:29;;;;;;;19.73;9.75;;;9.20;99.90;;;;;;5050159;28;20461;-81
2023/02/21 10:48:07;;;;;;;11.52;6.97;;;9.00;99.90;;;;;;5050977;28;20036;-81
2023/02/21 10:51:03;;;;;;;22.77;10.93;;;8.90;99.90;;;;;;5051219;28;20033;-80
2023/02/21 10:53:30;;;;;;;48.92;24.88;;;8.80;99.90;;;;;;5051354;28;20033;-81
2023/02/21 10:56:18;;;;;;;6.07;4.35;;;8.50;99.90;;;;;;5051202;28;20094;-81
2023/02/21 10:58:58;;;;;;;14.55;7.18;;;8.30;99.90;;;;;;5050393;28;20437;-81
2023/02/21 11:01:29;;;;;;;37.08;18.52;;;8.30;99.90;;;;;;5050482;28;20029;-82
2023/02/21 11:03:59;;;;;;;25.70;14.68;;;8.40;99.90;;;;;;5050567;28;20028;-81
2023/02/21 11:06:30;;;;;;;14.20;7.80;;;8.40;99.90;;;;;;5050911;28;20017;-81
2023/02/21 11:08:57;;;;;;;19.83;10.35;;;8.40;99.90;;;;;;5049391;28;20065;-82
2023/02/21 11:11:40;;;;;;;28.65;14.57;;;8.60;99.90;;;;;;5050817;28;20037;-81
2023/02/21 11:14:21;;;;;;;16.45;10.38;;;8.70;99.90;;;;;;5068132;28;20030;-81
2023/02/21 11:17:16;;;;;;;15.70;6.00;;;8.70;99.90;;;;;;5052018;28;20021;-81
2023/02/21 11:19:50;;;;;;;31.77;16.17;;;8.80;99.90;;;;;;5051508;28;20043;-81
2023/02/21 11:22:41;;;;;;;13.05;7.90;;;8.90;99.90;;;;;;5053681;28;20036;-82
2023/02/21 11:25:27;;;;;;;16.30;9.68;;;8.80;99.90;;;;;;5047053;28;20127;-82
2023/02/21 11:28:06;;;;;;;17.52;9.05;;;8.80;99.90;;;;;;5055298;28;20013;-81
2023/02/21 11:30:38;;;;;;;15.02;8.43;;;8.80;99.90;;;;;;5056370;28;20025;-82
2023/02/21 11:33:05;;;;;;;17.53;9.83;;;8.70;99.90;;;;;;5056426;28;20167;-83
2023/02/21 11:35:36;;;;;;;16.25;8.68;;;8.80;99.90;;;;;;5056454;28;20080;-81
2023/02/21 11:38:08;;;;;;;7.68;4.93;;;8.90;99.90;;;;;;5055145;28;20505;-83
2023/02/21 11:40:42;;;;;;;21.02;10.15;;;9.00;99.90;;;;;;5055925;28;20017;-83
2023/02/21 11:43:15;;;;;;;4.53;3.65;;;9.00;99.90;;;;;;5056417;28;20028;-81
2023/02/21 11:46:23;;;;;;;24.70;13.38;;;9.10;99.90;;;;;;5054958;28;20059;-81
2023/02/21 11:49:00;;;;;;;5.25;3.97;;;9.10;99.90;;;;;;5056286;28;20044;-81
2023/02/21 11:51:44;;;;;;;10.25;6.05;;;9.20;99.90;;;;;;5055958;28;20072;-80
2023/02/21 11:54:10;;;;;;;11.48;8.00;;;9.20;99.90;;;;;;5055471;28;20028;-80
2023/02/21 11:57:05;;;;;;;7.13;4.13;;;9.10;99.90;;;;;;5055893;28;20652;-82
2023/02/21 11:59:59;;;;;;;4.70;2.80;;;9.00;99.90;;;;;;5055913;28;20017;-80
2023/02/21 12:03:03;;;;;;;13.93;8.13;;;8.80;99.90;;;;;;5055853;28;20029;-82
2023/02/21 12:05:49;;;;;;;5.25;3.83;;;8.80;99.90;;;;;;5046649;28;20028;-81
2023/02/21 12:08:35;;;;;;;6.55;3.95;;;8.80;99.90;;;;;;5055267;28;20096;-80
2023/02/21 12:11:10;;;;;;;15.85;8.27;;;8.80;99.90;;;;;;5053906;28;20029;-81
2023/02/21 12:13:55;;;;;;;11.68;6.82;;;9.00;99.90;;;;;;5054127;28;20108;-80
2023/02/21 12:16:41;;;;;;;14.02;7.90;;;9.10;99.90;;;;;;5054467;28;20044;-79
2023/02/21 12:19:34;;;;;;;30.50;15.70;;;9.00;99.90;;;;;;5054332;28;20398;-80
2023/02/21 12:22:19;;;;;;;7.72;4.47;;;9.00;99.90;;;;;;5055128;28;20029;-81
2023/02/21 12:25:03;;;;;;;11.68;5.75;;;9.00;99.90;;;;;;5053585;28;20038;-81
2023/02/21 12:27:38;;;;;;;20.58;11.18;;;9.00;99.90;;;;;;5054705;28;20029;-80
2023/02/21 12:30:17;;;;;;;8.45;5.18;;;9.10;99.90;;;;;;5055058;28;20378;-80
2023/02/21 12:32:58;;;;;;;4.75;3.83;;;9.20;99.90;;;;;;5053650;28;20041;-80
2023/02/21 12:35:47;;;;;;;9.52;5.57;;;9.20;99.90;;;;;;5054199;28;20013;-80
2023/02/21 12:38:44;;;;;;;3.08;2.33;;;9.30;99.90;;;;;;5052999;28;20437;-81
2023/02/21 12:41:34;;;;;;;3.78;2.58;;;9.30;99.90;;;;;;5039112;28;20086;-80
2023/02/21 12:44:18;;;;;;;5.70;3.55;;;9.30;99.90;;;;;;5053823;28;20041;-80
2023/02/21 12:46:56;;;;;;;11.57;7.03;;;9.40;99.90;;;;;;5054530;28;20044;-79
2023/02/21 12:49:42;;;;;;;5.63;3.78;;;9.60;99.90;;;;;;5054882;28;20408;-81
2023/02/21 12:52:15;;;;;;;16.08;9.55;;;9.70;99.90;;;;;;5053759;28;20044;-82
2023/02/21 12:55:12;;;;;;;17.25;9.93;;;9.60;96.60;;;;;;5054181;28;20053;-80
2023/02/21 12:57:59;;;;;;;9.82;5.72;;;9.80;98.50;;;;;;5054876;28;20067;-80
2023/02/21 13:00:28;;;;;;;17.00;8.27;;;9.90;99.90;;;;;;5054624;28;20033;-81
2023/02/21 13:03:24;;;;;;;20.77;11.07;;;10.00;95.20;;;;;;5054803;28;20032;-80
2023/02/21 13:05:57;;;;;;;32.42;16.15;;;10.20;96.30;;;;;;5054539;28;20028;-78
2023/02/21 13:08:32;;;;;;;17.10;9.55;;;10.30;96.50;;;;;;5054093;28;20493;-80
2023/02/21 13:11:23;;;;;;;48.45;23.90;;;10.40;98.50;;;;;;5054360;28;20071;-79
2023/02/21 13:13:49;;;;;;;10.43;5.97;;;10.60;97.20;;;;;;5054644;28;20033;-80
2023/02/21 13:16:17;;;;;;;5.10;2.95;;;10.70;97.90;;;;;;5052789;28;20025;-79
2023/02/21 13:19:01;;;;;;;27.80;13.95;;;10.60;87.70;;;;;;5054109;28;20023;-81
2023/02/21 13:21:54;;;;;;;3.33;2.75;;;10.60;89.30;;;;;;5052781;28;20035;-80
2023/02/21 13:24:39;;;;;;;10.13;4.63;;;10.60;87.90;;;;;;5054008;28;20103;-82
2023/02/21 13:27:23;;;;;;;11.52;5.70;;;10.50;79.80;;;;;;5053945;28;20530;-82
2023/02/21 13:29:49;;;;;;;16.77;8.00;;;10.50;86.10;;;;;;5052926;28;20085;-80
2023/02/21 13:32:19;;;;;;;7.93;4.40;;;10.40;85.00;;;;;;5053013;28;20036;-81
2023/02/21 13:34:58;;;;;;;12.95;6.32;;;10.20;83.80;;;;;;5054334;28;20088;-80
2023/02/21 13:37:28;;;;;;;1.73;1.60;;;10.00;83.70;;;;;;5051999;28;20033;-80
2023/02/21 13:40:06;;;;;;;7.47;4.10;;;9.80;84.40;;;;;;5053647;28;20028;-80
2023/02/21 13:42:33;;;;;;;11.85;6.32;;;9.80;86.70;;;;;;5057956;28;20017;-81
2023/02/21 13:45:11;;;;;;;16.48;8.18;;;9.80;85.30;;;;;;5056420;28;20048;-81
2023/02/21 13:48:06;;;;;;;8.40;4.13;;;9.80;87.50;;;;;;5061069;28;20028;-80
2023/02/21 13:50:37;;;;;;;8.32;4.88;;;9.60;85.50;;;;;;5051819;28;20097;-80
2023/02/21 13:53:18;;;;;;;2.03;1.83;;;9.50;85.50;;;;;;5048197;28;20068;-80
2023/02/21 13:55:58;;;;;;;2.40;2.03;;;9.50;86.80;;;;;;5053523;28;20029;-80
2023/02/21 13:58:38;;;;;;;14.00;6.38;;;9.40;87.80;;;;;;5053326;28;20109;-81
2023/02/21 14:01:24;;;;;;;14.98;8.15;;;9.30;89.70;;;;;;5052052;28;20025;-81
2023/02/21 14:03:53;;;;;;;15.23;7.43;;;9.30;88.80;;;;;;5052890;28;20029;-82
2023/02/21 14:06:33;;;;;;;10.60;5.53;;;9.30;90.50;;;;;;5053457;28;20021;-80
2023/02/21 14:09:13;;;;;;;4.55;3.30;;;9.30;91.70;;;;;;5053016;28;20035;-80
2023/02/21 14:11:47;;;;;;;4.65;2.70;;;9.20;92.80;;;;;;5052176;28;20044;-80
2023/02/21 14:14:31;;;;;;;11.85;6.72;;;9.20;94.60;;;;;;5052324;28;20039;-80
2023/02/21 14:17:03;;;;;;;12.88;7.57;;;9.20;96.60;;;;;;5052359;28;20025;-79
2023/02/21 14:19:46;;;;;;;12.75;6.15;;;9.20;98.10;;;;;;5060670;28;20043;-79
2023/02/21 14:22:22;;;;;;;14.02;7.85;;;9.20;99.00;;;;;;5060961;28;20446;-80
2023/02/21 14:25:02;;;;;;;6.95;6.35;;;9.30;99.90;;;;;;5061827;28;20017;-80
2023/02/21 14:27:27;;;;;;;16.38;9.73;;;9.30;99.90;;;;;;5060314;28;20029;-80
2023/02/21 14:30:11;;;;;;;17.20;8.10;;;9.20;99.90;;;;;;5058946;28;20024;-80
2023/02/21 14:32:45;;;;;;;16.38;9.30;;;9.20;99.90;;;;;;5059974;28;20503;-79
2023/02/21 14:35:15;;;;;;;20.67;10.10;;;9.20;98.80;;;;;;5060948;28;20555;-79
2023/02/21 14:37:52;;;;;;;4.55;3.58;;;9.20;98.90;;;;;;5060363;28;20032;-79
2023/02/21 14:40:32;;;;;;;8.57;4.70;;;9.20;97.90;;;;;;5061118;28;20028;-79
2023/02/21 14:43:16;;;;;;;26.15;9.85;;;9.10;99.80;;;;;;5056996;28;20398;-81
2023/02/21 14:45:54;;;;;;;42.00;20.95;;;9.00;99.90;;;;;;5061687;28;20049;-79
2023/02/21 14:48:34;;;;;;;60.15;27.27;;;9.00;99.90;;;;;;5061921;28;20036;-79
2023/02/21 14:51:34;;;;;;;92.75;36.08;;;9.00;99.90;;;;;;5060929;28;20107;-79
2023/02/21 14:54:21;;;;;;;179.73;67.35;;;9.00;99.90;;;;;;5061546;28;20028;-82
2023/02/21 14:57:15;;;;;;;267.52;100.25;;;8.90;99.90;;;;;;5059880;28;20501;-81
2023/02/21 14:59:59;;;;;;;99.50;35.15;;;8.80;99.90;;;;;;5059625;28;20029;-81
2023/02/21 15:02:24;;;;;;;119.43;46.08;;;8.80;99.90;;;;;;5060348;28;20028;-81
2023/02/21 15:05:30;;;;;;;151.73;61.03;;;8.70;99.90;;;;;;5059372;28;20029;-82
2023/02/21 15:08:17;;;;;;;105.03;45.08;;;8.70;99.90;;;;;;5061873;28;20381;-83
2023/02/21 15:10:46;;;;;;;83.70;40.45;;;8.60;99.90;;;;;;5060516;28;20028;-80
2023/02/21 15:13:26;;;;;;;41.83;20.63;;;8.60;99.90;;;;;;5061305;28;20390;-81
2023/02/21 15:16:07;;;;;;;63.65;35.08;;;8.50;99.90;;;;;;5057782;28;20024;-80
2023/02/21 15:18:55;;;;;;;10.65;4.95;;;8.60;99.90;;;;;;5062160;28;20466;-79
2023/02/21 15:21:21;;;;;;;20.55;14.15;;;8.60;99.90;;;;;;5058810;28;20036;-80
2023/02/21 15:23:58;;;;;;;10.02;7.57;;;8.60;99.90;;;;;;5060611;28;20032;-80
2023/02/21 15:26:30;;;;;;;5.70;4.30;;;8.60;99.90;;;;;;5059861;28;20493;-80
2023/02/21 15:29:22;;;;;;;3.55;2.97;;;8.70;99.90;;;;;;5060573;28;20016;-80
2023/02/21 15:31:53;;;;;;;6.20;4.40;;;8.70;99.90;;;;;;5055382;28;20048;-81
2023/02/21 15:34:21;;;;;;;4.63;3.25;;;8.70;99.90;;;;;;5060661;28;20127;-80